createdAt,value
2019-06-20T00:01:52.524Z,68.81
2019-06-20T00:06:47.123Z,70.05
2019-06-20T00:11:41.713Z,73.82
2019-06-20T00:16:36.305Z,77.93
2019-06-20T00:21:30.878Z,80.00
2019-06-20T00:26:25.482Z,81.76
2019-06-20T00:31:20.083Z,81.63
2019-06-20T00:36:14.668Z,82.13
2019-06-20T00:41:09.247Z,82.12
2019-06-20T00:46:03.914Z,82.56
2019-06-20T00:50:58.514Z,82.91
2019-06-20T00:55:53.158Z,83.11
2019-06-20T01:00:47.747Z,83.04
2019-06-20T01:05:42.337Z,82.83
2019-06-20T01:10:36.972Z,83.28
2019-06-20T01:15:31.617Z,83.45
2019-06-20T01:20:26.848Z,83.67
2019-06-20T01:25:37.507Z,83.98
2019-06-20T01:30:32.089Z,83.86
2019-06-20T01:35:26.680Z,83.67
2019-06-20T01:40:21.279Z,83.67
2019-06-20T01:45:16.173Z,83.37
2019-06-20T01:50:12.081Z,82.33
2019-06-20T01:55:06.825Z,82.00
2019-06-20T02:00:01.550Z,81.05
2019-06-20T02:04:56.171Z,79.86
2019-06-20T02:09:50.776Z,80.66
2019-06-20T02:14:45.354Z,80.61
2019-06-20T02:19:39.941Z,80.01
2019-06-20T02:24:34.536Z,79.91
2019-06-20T02:29:29.198Z,79.01
2019-06-20T02:34:23.799Z,78.37
2019-06-20T02:39:18.386Z,78.05
2019-06-20T02:44:29.081Z,78.93
2019-06-20T02:49:09.310Z,78.67
2019-06-20T02:54:04.022Z,78.55
2019-06-20T02:58:58.610Z,78.73
2019-06-20T03:03:53.213Z,79.05
2019-06-20T03:08:47.822Z,79.64
2019-06-20T03:13:42.405Z,80.60
2019-06-20T03:18:36.994Z,80.65
2019-06-20T03:23:31.584Z,81.39
2019-06-20T03:28:26.244Z,81.51
2019-06-20T03:33:20.985Z,81.34
2019-06-20T03:38:15.573Z,81.56
2019-06-20T03:43:10.170Z,81.72
2019-06-20T03:48:04.941Z,81.76
2019-06-20T03:53:02.560Z,82.81
2019-06-20T03:57:58.299Z,82.37
2019-06-20T04:02:52.960Z,82.52
2019-06-20T04:07:47.551Z,82.41
2019-06-20T04:12:42.140Z,81.94
2019-06-20T04:17:36.736Z,81.17
2019-06-20T04:22:31.322Z,80.93
2019-06-20T04:27:25.909Z,81.19
2019-06-20T04:32:20.495Z,81.08
2019-06-20T04:37:15.081Z,80.41
2019-06-20T04:42:09.677Z,79.43
2019-06-20T04:47:11.947Z,78.58
2019-06-20T04:52:06.583Z,77.17
2019-06-20T04:57:01.182Z,76.51
2019-06-20T05:01:55.772Z,75.33
2019-06-20T05:06:57.449Z,72.08
2019-06-20T05:11:52.046Z,66.04
2019-06-20T05:16:46.641Z,61.88
2019-06-20T05:21:41.347Z,56.07
2019-06-20T05:26:35.924Z,52.59
2019-06-20T05:31:30.518Z,50.77
2019-06-20T05:36:25.088Z,47.36
2019-06-20T05:41:19.695Z,44.24
2019-06-20T05:46:14.286Z,42.38
2019-06-20T05:51:08.876Z,39.09
2019-06-20T05:56:03.479Z,37.03
2019-06-20T06:00:58.083Z,39.52
2019-06-20T06:05:52.662Z,42.60
2019-06-20T06:10:47.857Z,44.20
2019-06-20T06:15:42.566Z,45.94
2019-06-20T06:20:37.168Z,42.93
2019-06-20T06:25:31.751Z,41.61
2019-06-20T06:30:27.624Z,39.81
2019-06-20T06:35:22.374Z,41.32
2019-06-20T06:40:18.357Z,42.49
2019-06-20T06:45:15.750Z,44.04
2019-06-20T06:50:11.640Z,45.83
2019-06-20T06:55:07.755Z,47.37
2019-06-20T07:00:02.558Z,47.98
2019-06-20T07:04:57.307Z,47.65
2019-06-20T07:09:51.904Z,50.22
2019-06-20T07:14:46.663Z,52.71
2019-06-20T07:19:41.271Z,53.60
2019-06-20T07:24:35.842Z,54.62
2019-06-20T07:29:30.596Z,54.99
2019-06-20T07:34:25.215Z,53.84
2019-06-20T07:39:19.864Z,52.85
2019-06-20T07:44:14.456Z,52.37
2019-06-20T07:49:09.116Z,51.08
2019-06-20T07:54:03.719Z,49.51
2019-06-20T07:58:58.289Z,50.77
2019-06-20T08:03:52.887Z,49.14
2019-06-20T08:08:47.511Z,49.14
2019-06-20T08:13:42.085Z,49.62
2019-06-20T08:18:36.675Z,49.58
2019-06-20T08:23:31.269Z,51.61
2019-06-20T08:28:25.871Z,52.60
2019-06-20T08:33:20.944Z,52.47
2019-06-20T08:38:15.609Z,52.18
2019-06-20T08:43:11.010Z,52.83
2019-06-20T08:48:07.262Z,52.83
2019-06-20T08:53:03.544Z,53.72
2019-06-20T08:57:59.706Z,53.74
2019-06-20T09:02:55.679Z,52.89
2019-06-20T09:07:51.202Z,53.38
2019-06-20T09:12:46.216Z,54.63
2019-06-20T09:17:40.807Z,54.68
2019-06-20T09:22:35.550Z,55.11
2019-06-20T09:27:30.196Z,56.03
2019-06-20T09:32:24.774Z,55.44
2019-06-20T09:37:19.359Z,54.92
2019-06-20T09:42:13.952Z,54.96
2019-06-20T09:47:08.682Z,52.71
2019-06-20T09:52:03.302Z,54.30
2019-06-20T09:56:58.367Z,55.60
2019-06-20T10:01:55.517Z,56.79
2019-06-20T10:06:50.183Z,55.33
2019-06-20T10:11:45.280Z,56.82
2019-06-20T10:16:45.930Z,57.49
2019-06-20T10:21:37.555Z,59.50
2019-06-20T10:26:32.223Z,59.31
2019-06-20T10:31:26.832Z,58.81
2019-06-20T10:36:21.424Z,61.20
2019-06-20T10:41:16.020Z,63.17
2019-06-20T10:46:10.611Z,63.23
2019-06-20T10:51:23.092Z,64.25
2019-06-20T10:56:17.661Z,63.97
2019-06-20T11:01:12.281Z,66.50
2019-06-20T11:06:06.938Z,66.42
2019-06-20T11:11:01.540Z,65.25
2019-06-20T11:15:56.130Z,66.50
2019-06-20T11:20:50.775Z,67.57
2019-06-20T11:25:46.623Z,67.40
2019-06-20T11:30:53.503Z,65.66
2019-06-20T11:35:39.255Z,67.72
2019-06-20T11:40:35.356Z,67.74
2019-06-20T11:45:30.540Z,69.37
2019-06-20T11:50:25.337Z,69.83
2019-06-20T11:55:20.902Z,71.25
2019-06-20T12:00:16.805Z,71.26
2019-06-20T12:05:13.824Z,73.22
2019-06-20T12:10:10.007Z,72.05
2019-06-20T12:15:07.166Z,72.06
2019-06-20T12:20:01.899Z,72.52
2019-06-20T12:24:56.577Z,71.69
2019-06-20T12:29:51.176Z,70.12
2019-06-20T12:34:46.606Z,68.65
2019-06-20T12:39:42.271Z,69.46
2019-06-20T12:44:38.494Z,68.79
2019-06-20T12:49:33.224Z,66.24
2019-06-20T12:54:30.170Z,65.29
2019-06-20T12:59:24.154Z,64.16
2019-06-20T13:04:18.799Z,62.67
2019-06-20T13:09:13.393Z,61.45
2019-06-20T13:14:08.121Z,61.53
2019-06-20T13:19:02.737Z,60.98
2019-06-20T13:23:57.312Z,60.30
2019-06-20T13:29:03.321Z,59.83
2019-06-20T13:33:48.928Z,57.02
2019-06-20T13:38:44.515Z,56.42
2019-06-20T13:43:39.336Z,54.98
2019-06-20T13:48:33.928Z,54.32
2019-06-20T13:53:28.523Z,52.91
2019-06-20T13:58:23.117Z,55.13
2019-06-20T14:03:17.696Z,55.52
2019-06-20T14:08:12.288Z,55.30
2019-06-20T14:13:18.601Z,54.29
2019-06-20T14:18:04.278Z,54.23
2019-06-20T14:22:58.842Z,54.52
2019-06-20T14:27:53.862Z,54.20
2019-06-20T14:32:49.471Z,51.37
2019-06-20T14:37:46.040Z,51.23
2019-06-20T14:42:40.865Z,51.57
2019-06-20T14:47:35.948Z,50.56
2019-06-20T14:52:30.545Z,49.83
2019-06-20T14:57:25.164Z,48.35
2019-06-20T15:02:19.740Z,50.99
2019-06-20T15:07:14.331Z,56.04
2019-06-20T15:12:08.937Z,56.98
2019-06-20T15:17:03.505Z,57.92
2019-06-20T15:21:58.203Z,57.19
2019-06-20T15:26:53.968Z,56.25
2019-06-20T15:31:49.337Z,57.72
2019-06-20T15:36:45.145Z,58.49
2019-06-20T15:41:39.747Z,59.16
2019-06-20T15:46:34.334Z,60.91
2019-06-20T15:51:28.932Z,61.65
2019-06-20T15:56:23.526Z,61.12
2019-06-20T16:01:18.133Z,61.22
2019-06-20T16:06:12.737Z,61.07
2019-06-20T16:11:07.428Z,62.46
2019-06-20T16:16:02.073Z,64.52
2019-06-20T16:20:56.675Z,64.91
2019-06-20T16:25:51.265Z,65.20
2019-06-20T16:30:45.853Z,64.68
2019-06-20T16:35:40.429Z,64.62
2019-06-20T16:40:49.499Z,65.27
2019-06-20T16:45:44.808Z,64.91
2019-06-20T16:50:39.624Z,64.77
2019-06-20T16:55:34.771Z,63.46
2019-06-20T17:00:30.196Z,62.49
2019-06-20T17:05:24.929Z,61.18
2019-06-20T17:10:20.309Z,61.71
2019-06-20T17:15:15.897Z,61.76
2019-06-20T17:20:11.177Z,63.50
2019-06-20T17:25:09.991Z,66.32
2019-06-20T17:30:13.574Z,69.35
2019-06-20T17:35:10.488Z,72.48
2019-06-20T17:40:11.784Z,74.12
2019-06-20T17:45:11.578Z,74.27
2019-06-20T17:50:09.419Z,72.96
2019-06-20T17:55:05.579Z,74.68
2019-06-20T18:00:00.223Z,75.92
2019-06-20T18:04:54.826Z,76.05
2019-06-20T18:09:49.497Z,74.62
2019-06-20T18:14:44.073Z,75.73
2019-06-20T18:19:38.765Z,74.48
2019-06-20T18:24:33.347Z,74.49
2019-06-20T18:29:28.033Z,73.22
2019-06-20T18:34:29.954Z,75.06
2019-06-20T18:39:18.965Z,76.08
2019-06-20T18:44:13.547Z,78.21
2019-06-20T18:49:08.153Z,76.03
2019-06-20T18:54:02.735Z,70.53
2019-06-20T18:58:57.327Z,60.24
2019-06-20T19:03:51.957Z,56.23
2019-06-20T19:08:47.076Z,54.96
2019-06-20T19:13:41.694Z,59.71
2019-06-20T19:18:36.350Z,66.59
2019-06-20T19:23:30.935Z,71.83
2019-06-20T19:28:25.563Z,71.92
2019-06-20T19:33:20.375Z,74.12
2019-06-20T19:38:15.084Z,76.04
2019-06-20T19:43:09.748Z,76.26
2019-06-20T19:48:04.478Z,76.59
2019-06-20T19:52:59.880Z,76.61
2019-06-20T19:57:54.598Z,77.10
2019-06-20T20:02:49.260Z,77.42
2019-06-20T20:07:43.942Z,77.30
2019-06-20T20:12:38.607Z,77.68
2019-06-20T20:17:33.217Z,78.44
2019-06-20T20:22:27.792Z,77.77
2019-06-20T20:27:22.761Z,77.41
2019-06-20T20:32:17.391Z,78.49
2019-06-20T20:37:11.971Z,78.15
2019-06-20T20:42:07.084Z,79.28
2019-06-20T20:47:01.731Z,79.41
2019-06-20T20:51:56.308Z,81.07
2019-06-20T20:56:50.891Z,82.67
2019-06-20T21:01:45.562Z,83.83
2019-06-20T21:06:40.146Z,84.25
2019-06-20T21:11:34.750Z,85.01
2019-06-20T21:16:29.418Z,86.13
2019-06-20T21:21:24.054Z,86.78
2019-06-20T21:26:18.700Z,85.03
2019-06-20T21:31:13.333Z,85.44
2019-06-20T21:36:09.239Z,85.16
2019-06-20T21:41:04.051Z,85.35
2019-06-20T21:45:59.015Z,85.69
2019-06-20T21:50:53.748Z,85.90
2019-06-20T21:55:48.416Z,86.66
2019-06-20T22:00:48.859Z,86.19
2019-06-20T22:05:43.513Z,86.33
2019-06-20T22:10:38.713Z,87.22
2019-06-20T22:15:34.800Z,87.93
2019-06-20T22:20:29.787Z,88.11
2019-06-20T22:25:26.024Z,88.10
2019-06-20T22:30:36.516Z,86.84
2019-06-20T22:35:31.097Z,86.59
2019-06-20T22:40:25.687Z,85.14
2019-06-20T22:45:20.793Z,83.52
2019-06-20T22:50:15.684Z,84.18
2019-06-20T22:55:10.340Z,83.86
2019-06-20T23:00:10.276Z,84.16
2019-06-20T23:05:06.371Z,85.62
2019-06-20T23:10:10.647Z,86.96
2019-06-20T23:14:57.261Z,87.85
2019-06-20T23:19:51.863Z,88.64
2019-06-20T23:24:46.536Z,89.06
2019-06-20T23:29:41.177Z,89.65
2019-06-20T23:34:35.776Z,90.04
2019-06-20T23:39:30.520Z,90.46
2019-06-20T23:44:25.104Z,90.84
2019-06-20T23:49:19.691Z,89.85
2019-06-20T23:54:14.297Z,90.47
2019-06-20T23:59:08.881Z,90.04
